Jamie Marie — WDE7178 — position and weather

sailwx.info

Track history (hours):
 
Tides and Currents Weather Stations Pressure Air Temp Water Temp Dewpoint Dewpoint Depression Visibility Wind Speed Wind Dir Waves Ship Positions

Jamie Marie

Owner: Jamie Marie, Inc., Aberdeen, WA. More information available from US FCC via Universal Licensing System and Coast Guard Vessel Documentation Center.

Last reported at 2016-Feb-12 15:24 UTC. Time now 2016-Feb-14 08:03 UTC.
Position N 46°55' W 124°08'.

Length 30 m.

Type: Fishing. MMSI: 366425240.

Date/timePositionNaut miles runAvg speedWind from/ knotsBaromVisibWave heightAir tempDewpointWater temp
2016-Feb-12 15:24N 46°55' W 124°08'4 4.7
2016-Feb-12 14:33N 46°52' W 124°12'8 7.8
2016-Feb-12 13:33N 46°44' W 124°12'7 7.4
2016-Feb-12 12:33N 46°37' W 124°08'7 7.3
2016-Feb-12 11:33N 46°30' W 124°08'7 7.4
2016-Feb-12 10:34N 46°22' W 124°08'6 6.4
2016-Feb-12 09:34N 46°17' W 124°14'7 7.4
2016-Feb-12 08:33N 46°12' W 124°21'3 2.9
2016-Feb-12 07:33N 46°09' W 124°21'3 2.6
2016-Feb-12 06:33N 46°12' W 124°21'3 3.1
2016-Feb-12 05:34N 46°09' W 124°19'2 2.2
2016-Feb-12 04:34N 46°11' W 124°20'1 0.6
2016-Feb-12 03:33N 46°11' W 124°20'2 2.4
2016-Feb-12 02:34N 46°09' W 124°17'3 2.8
2016-Feb-12 01:33N 46°12' W 124°17'1 0.7
2016-Feb-12 00:33N 46°11' W 124°17'1 1.2
2016-Feb-11 23:33N 46°12' W 124°16'2 1.7
2016-Feb-11 22:34N 46°14' W 124°14'5 4.7
2016-Feb-11 21:33N 46°18' W 124°16'6 6.3
2016-Feb-11 20:33N 46°24' W 124°17'7 6.6
2016-Feb-11 19:33N 46°31' W 124°19'7 7.0
2016-Feb-11 18:34N 46°38' W 124°20'8 7.7
2016-Feb-11 17:34N 46°45' W 124°22'7 7.3
2016-Feb-11 16:33N 46°53' W 124°24'3 2.6
2016-Feb-11 15:33N 46°50' W 124°23'1 1.5
2016-Feb-11 14:33N 46°51' W 124°21'3 3.2
2016-Feb-11 13:33N 46°54' W 124°23'3 2.9
2016-Feb-11 12:34N 46°57' W 124°23'3 3.1
2016-Feb-11 11:33N 46°60' W 124°24'4 3.7
2016-Feb-11 10:34N 47°03' W 124°26'3 2.6
2016-Feb-11 09:33N 47°05' W 124°29'4 4.0
2016-Feb-11 08:33N 47°07' W 124°34'4 4.2
2016-Feb-11 07:32N 47°09' W 124°40'3 0.2
2016-Feb-10 17:08N 47°07' W 124°36'4 0.4
2016-Feb-10 06:29N 47°05' W 124°32'7 7.8
2016-Feb-10 05:33N 46°57' W 124°32'8 7.6
2016-Feb-10 04:33N 46°50' W 124°28'8 7.7
2016-Feb-10 03:33N 46°43' W 124°25'8 7.9
2016-Feb-10 02:33N 46°35' W 124°21'8 8.3
2016-Feb-10 01:33N 46°27' W 124°17'9 9.1
2016-Feb-10 00:33N 46°19' W 124°15'2 2.2
2016-Feb-09 23:33N 46°16' W 124°15'3 2.6
2016-Feb-09 22:33N 46°14' W 124°16'2 1.8
2016-Feb-09 21:34N 46°15' W 124°17'3 2.8
2016-Feb-09 20:33N 46°17' W 124°20'2 2.3
2016-Feb-09 19:33N 46°19' W 124°22'1 0.5
2016-Feb-09 18:33N 46°20' W 124°21'0 0.1
2016-Feb-09 17:33N 46°20' W 124°21'2 2.0
2016-Feb-09 16:33N 46°18' W 124°21'1 1.1
2016-Feb-09 15:33N 46°17' W 124°19'3 2.7
2016-Feb-09 14:33N 46°17' W 124°15'1 1.0
2016-Feb-09 13:33N 46°17' W 124°14'0 0.1
2016-Feb-09 12:33N 46°17' W 124°14'1 1.2
2016-Feb-09 11:33N 46°16' W 124°13'1 0.9
2016-Feb-09 10:33N 46°17' W 124°14'3 3.2
2016-Feb-09 09:33N 46°19' W 124°17'3 2.9
2016-Feb-09 08:33N 46°17' W 124°14'1 0.7
2016-Feb-09 07:33N 46°17' W 124°13'1 1.0
2016-Feb-09 06:33N 46°17' W 124°14'1 0.6
2016-Feb-09 05:33N 46°17' W 124°14'1 1.2
2016-Feb-09 04:33N 46°16' W 124°13'1 0.9
2016-Feb-09 03:33N 46°17' W 124°14'1 0.8
2016-Feb-09 02:33N 46°17' W 124°15'1 0.6
2016-Feb-09 01:33N 46°18' W 124°15'3 2.8
2016-Feb-09 00:34N 46°21' W 124°15'3 2.7
2016-Feb-08 23:33N 46°23' W 124°16'6 6.0
2016-Feb-08 22:33N 46°18' W 124°13'2 1.6
2016-Feb-08 21:33N 46°16' W 124°14'3 2.8
2016-Feb-08 20:34N 46°19' W 124°14'7 7.0
2016-Feb-08 19:33N 46°18' W 124°24'6 5.6
2016-Feb-08 18:33N 46°19' W 124°32'3 2.7
2016-Feb-08 17:33N 46°16' W 124°33'2 2.0
2016-Feb-08 16:33N 46°17' W 124°30'1 1.2
2016-Feb-08 15:33N 46°18' W 124°30'2 2.0
2016-Feb-08 14:33N 46°20' W 124°30'2 2.1
2016-Feb-08 13:33N 46°18' W 124°30'2 2.0
2016-Feb-08 12:34N 46°19' W 124°32'2 1.9
2016-Feb-08 11:33N 46°17' W 124°32'1 1.2
2016-Feb-08 10:34N 46°18' W 124°32'2 2.0
2016-Feb-08 09:33N 46°17' W 124°34'1 0.8
2016-Feb-08 08:33N 46°17' W 124°34'4 3.8
2016-Feb-08 07:33N 46°17' W 124°29'7 6.8
2016-Feb-08 06:34N 46°12' W 124°22'3 2.8
2016-Feb-08 05:33N 46°09' W 124°21'2 2.3
2016-Feb-08 04:33N 46°12' W 124°22'1 1.2
2016-Feb-08 03:33N 46°11' W 124°20'2 2.4
2016-Feb-08 02:33N 46°09' W 124°19'4 3.9
2016-Feb-08 01:33N 46°13' W 124°20'3 3.4
2016-Feb-08 00:33N 46°10' W 124°17'0 0.5
2016-Feb-07 23:33N 46°10' W 124°17'1 1.1
2016-Feb-07 22:33N 46°11' W 124°17'7 7.1
2016-Feb-07 21:33N 46°18' W 124°16'7 6.7
2016-Feb-07 20:33N 46°25' W 124°16'6 6.4
2016-Feb-07 19:33N 46°31' W 124°16'7 6.8
2016-Feb-07 18:33N 46°38' W 124°16'7 7.2
2016-Feb-07 17:33N 46°45' W 124°15'7 7.2
2016-Feb-07 16:33N 46°53' W 124°13'5 0.6
2016-Feb-07 07:24N 46°54' W 124°06'  
2016-Feb-04 21:24N 46°54' W 124°06'3 0.1
2016-Feb-03 18:33N 46°55' W 124°11'8 2.0
2016-Feb-03 14:33N 46°50' W 124°21'8 7.7
2016-Feb-03 13:33N 46°43' W 124°19'8 8.4
2016-Feb-03 12:34N 46°34' W 124°17'9 8.8
2016-Feb-03 11:33N 46°25' W 124°15'9 8.8
2016-Feb-03 10:33N 46°17' W 124°14'1 1.0
2016-Feb-03 09:33N 46°18' W 124°14'1 0.8
2016-Feb-03 08:34N 46°18' W 124°15'3 2.9
2016-Feb-03 07:33N 46°16' W 124°17'1 1.0
2016-Feb-03 06:33N 46°17' W 124°19'5 5.0
2016-Feb-03 05:33N 46°12' W 124°21'3 3.4
2016-Feb-03 04:34N 46°09' W 124°19'3 2.8
2016-Feb-03 03:33N 46°11' W 124°21'2 2.0
2016-Feb-03 02:34N 46°09' W 124°21'2 2.4
2016-Feb-03 01:33N 46°11' W 124°21'1 0.9
2016-Feb-03 00:33N 46°12' W 124°21'3 3.0
2016-Feb-02 23:34N 46°10' W 124°19'3 2.8
2016-Feb-02 22:34N 46°13' W 124°18'5 5.1
2016-Feb-02 21:34N 46°18' W 124°18'5 4.7
2016-Feb-02 20:33N 46°18' W 124°25'4 3.6
2016-Feb-02 19:33N 46°18' W 124°30'3 3.1
2016-Feb-02 18:33N 46°21' W 124°30'4 4.2
2016-Feb-02 17:33N 46°17' W 124°30'2 2.2
2016-Feb-02 16:33N 46°16' W 124°33'1 1.4
2016-Feb-02 15:33N 46°17' W 124°32'  
Track history (hours):
 
Tides and Currents Weather Stations Pressure Air Temp Water Temp Dewpoint Dewpoint Depression Visibility Wind Speed Wind Dir Waves Ship Positions

Jamie Marie

Owner: Jamie Marie, Inc., Aberdeen, WA. More information available from US FCC via Universal Licensing System and Coast Guard Vessel Documentation Center.

Last reported at 2016-Feb-12 15:24 UTC. Time now 2016-Feb-14 08:03 UTC.
Position N 46°55' W 124°08'.

Length 30 m.

Type: Fishing. MMSI: 366425240.

Date/timePositionNaut miles runAvg speedWind from/ knotsBaromVisibWave heightAir tempDewpointWater temp
2016-Feb-12 15:24N 46°55' W 124°08'4 4.7
2016-Feb-12 14:33N 46°52' W 124°12'8 7.8
2016-Feb-12 13:33N 46°44' W 124°12'7 7.4
2016-Feb-12 12:33N 46°37' W 124°08'7 7.3
2016-Feb-12 11:33N 46°30' W 124°08'7 7.4
2016-Feb-12 10:34N 46°22' W 124°08'6 6.4
2016-Feb-12 09:34N 46°17' W 124°14'7 7.4
2016-Feb-12 08:33N 46°12' W 124°21'3 2.9
2016-Feb-12 07:33N 46°09' W 124°21'3 2.6
2016-Feb-12 06:33N 46°12' W 124°21'3 3.1
2016-Feb-12 05:34N 46°09' W 124°19'2 2.2
2016-Feb-12 04:34N 46°11' W 124°20'1 0.6
2016-Feb-12 03:33N 46°11' W 124°20'2 2.4
2016-Feb-12 02:34N 46°09' W 124°17'3 2.8
2016-Feb-12 01:33N 46°12' W 124°17'1 0.7
2016-Feb-12 00:33N 46°11' W 124°17'1 1.2
2016-Feb-11 23:33N 46°12' W 124°16'2 1.7
2016-Feb-11 22:34N 46°14' W 124°14'5 4.7
2016-Feb-11 21:33N 46°18' W 124°16'6 6.3
2016-Feb-11 20:33N 46°24' W 124°17'7 6.6
2016-Feb-11 19:33N 46°31' W 124°19'7 7.0
2016-Feb-11 18:34N 46°38' W 124°20'8 7.7
2016-Feb-11 17:34N 46°45' W 124°22'7 7.3
2016-Feb-11 16:33N 46°53' W 124°24'3 2.6
2016-Feb-11 15:33N 46°50' W 124°23'1 1.5
2016-Feb-11 14:33N 46°51' W 124°21'3 3.2
2016-Feb-11 13:33N 46°54' W 124°23'3 2.9
2016-Feb-11 12:34N 46°57' W 124°23'3 3.1
2016-Feb-11 11:33N 46°60' W 124°24'4 3.7
2016-Feb-11 10:34N 47°03' W 124°26'3 2.6
2016-Feb-11 09:33N 47°05' W 124°29'4 4.0
2016-Feb-11 08:33N 47°07' W 124°34'4 4.2
2016-Feb-11 07:32N 47°09' W 124°40'3 0.2
2016-Feb-10 17:08N 47°07' W 124°36'4 0.4
2016-Feb-10 06:29N 47°05' W 124°32'7 7.8
2016-Feb-10 05:33N 46°57' W 124°32'8 7.6
2016-Feb-10 04:33N 46°50' W 124°28'8 7.7
2016-Feb-10 03:33N 46°43' W 124°25'8 7.9
2016-Feb-10 02:33N 46°35' W 124°21'8 8.3
2016-Feb-10 01:33N 46°27' W 124°17'9 9.1
2016-Feb-10 00:33N 46°19' W 124°15'2 2.2
2016-Feb-09 23:33N 46°16' W 124°15'3 2.6
2016-Feb-09 22:33N 46°14' W 124°16'2 1.8
2016-Feb-09 21:34N 46°15' W 124°17'3 2.8
2016-Feb-09 20:33N 46°17' W 124°20'2 2.3
2016-Feb-09 19:33N 46°19' W 124°22'1 0.5
2016-Feb-09 18:33N 46°20' W 124°21'0 0.1
2016-Feb-09 17:33N 46°20' W 124°21'2 2.0
2016-Feb-09 16:33N 46°18' W 124°21'1 1.1
2016-Feb-09 15:33N 46°17' W 124°19'3 2.7
2016-Feb-09 14:33N 46°17' W 124°15'1 1.0
2016-Feb-09 13:33N 46°17' W 124°14'0 0.1
2016-Feb-09 12:33N 46°17' W 124°14'1 1.2
2016-Feb-09 11:33N 46°16' W 124°13'1 0.9
2016-Feb-09 10:33N 46°17' W 124°14'3 3.2
2016-Feb-09 09:33N 46°19' W 124°17'3 2.9
2016-Feb-09 08:33N 46°17' W 124°14'1 0.7
2016-Feb-09 07:33N 46°17' W 124°13'1 1.0
2016-Feb-09 06:33N 46°17' W 124°14'1 0.6
2016-Feb-09 05:33N 46°17' W 124°14'1 1.2
2016-Feb-09 04:33N 46°16' W 124°13'1 0.9
2016-Feb-09 03:33N 46°17' W 124°14'1 0.8
2016-Feb-09 02:33N 46°17' W 124°15'1 0.6
2016-Feb-09 01:33N 46°18' W 124°15'3 2.8
2016-Feb-09 00:34N 46°21' W 124°15'3 2.7
2016-Feb-08 23:33N 46°23' W 124°16'6 6.0
2016-Feb-08 22:33N 46°18' W 124°13'2 1.6
2016-Feb-08 21:33N 46°16' W 124°14'3 2.8
2016-Feb-08 20:34N 46°19' W 124°14'7 7.0
2016-Feb-08 19:33N 46°18' W 124°24'6 5.6
2016-Feb-08 18:33N 46°19' W 124°32'3 2.7
2016-Feb-08 17:33N 46°16' W 124°33'2 2.0
2016-Feb-08 16:33N 46°17' W 124°30'1 1.2
2016-Feb-08 15:33N 46°18' W 124°30'2 2.0
2016-Feb-08 14:33N 46°20' W 124°30'2 2.1
2016-Feb-08 13:33N 46°18' W 124°30'2 2.0
2016-Feb-08 12:34N 46°19' W 124°32'2 1.9
2016-Feb-08 11:33N 46°17' W 124°32'1 1.2
2016-Feb-08 10:34N 46°18' W 124°32'2 2.0
2016-Feb-08 09:33N 46°17' W 124°34'1 0.8
2016-Feb-08 08:33N 46°17' W 124°34'4 3.8
2016-Feb-08 07:33N 46°17' W 124°29'7 6.8
2016-Feb-08 06:34N 46°12' W 124°22'3 2.8
2016-Feb-08 05:33N 46°09' W 124°21'2 2.3
2016-Feb-08 04:33N 46°12' W 124°22'1 1.2
2016-Feb-08 03:33N 46°11' W 124°20'2 2.4
2016-Feb-08 02:33N 46°09' W 124°19'4 3.9
2016-Feb-08 01:33N 46°13' W 124°20'3 3.4
2016-Feb-08 00:33N 46°10' W 124°17'0 0.5
2016-Feb-07 23:33N 46°10' W 124°17'1 1.1
2016-Feb-07 22:33N 46°11' W 124°17'7 7.1
2016-Feb-07 21:33N 46°18' W 124°16'7 6.7
2016-Feb-07 20:33N 46°25' W 124°16'6 6.4
2016-Feb-07 19:33N 46°31' W 124°16'7 6.8
2016-Feb-07 18:33N 46°38' W 124°16'7 7.2
2016-Feb-07 17:33N 46°45' W 124°15'7 7.2
2016-Feb-07 16:33N 46°53' W 124°13'5 0.6
2016-Feb-07 07:24N 46°54' W 124°06'  
2016-Feb-04 21:24N 46°54' W 124°06'3 0.1
2016-Feb-03 18:33N 46°55' W 124°11'8 2.0
2016-Feb-03 14:33N 46°50' W 124°21'8 7.7
2016-Feb-03 13:33N 46°43' W 124°19'8 8.4
2016-Feb-03 12:34N 46°34' W 124°17'9 8.8
2016-Feb-03 11:33N 46°25' W 124°15'9 8.8
2016-Feb-03 10:33N 46°17' W 124°14'1 1.0
2016-Feb-03 09:33N 46°18' W 124°14'1 0.8
2016-Feb-03 08:34N 46°18' W 124°15'3 2.9
2016-Feb-03 07:33N 46°16' W 124°17'1 1.0
2016-Feb-03 06:33N 46°17' W 124°19'5 5.0
2016-Feb-03 05:33N 46°12' W 124°21'3 3.4
2016-Feb-03 04:34N 46°09' W 124°19'3 2.8
2016-Feb-03 03:33N 46°11' W 124°21'2 2.0
2016-Feb-03 02:34N 46°09' W 124°21'2 2.4
2016-Feb-03 01:33N 46°11' W 124°21'1 0.9
2016-Feb-03 00:33N 46°12' W 124°21'3 3.0
2016-Feb-02 23:34N 46°10' W 124°19'3 2.8
2016-Feb-02 22:34N 46°13' W 124°18'5 5.1
2016-Feb-02 21:34N 46°18' W 124°18'5 4.7
2016-Feb-02 20:33N 46°18' W 124°25'4 3.6
2016-Feb-02 19:33N 46°18' W 124°30'3 3.1
2016-Feb-02 18:33N 46°21' W 124°30'4 4.2
2016-Feb-02 17:33N 46°17' W 124°30'2 2.2
2016-Feb-02 16:33N 46°16' W 124°33'1 1.4
2016-Feb-02 15:33N 46°17' W 124°32'  

Dump ship's entire track history